Time;durP1;ratioP1;P1;durP2;ratioP2;P2;SDS_P1;SDS_P2;PMS_P1;PMS_P2;Temp;Humidity;BMP_temperature;BMP_pressure;BME280_temperature;BME280_humidity;BME280_pressure;Samples;Min_cycle;Max_cycle;Signal;HPM_P1;HPM_P2
2021/06/30 00:02:20;;;;;;;2.75;1.45;;;;;;;15.11;100.00;100356.11;1731577;82;21019;-49
2021/06/30 00:04:48;;;;;;;2.67;1.60;;;;;;;15.05;100.00;100360.37;1731703;82;21452;-49
2021/06/30 00:07:15;;;;;;;2.90;1.67;;;;;;;15.01;100.00;100360.76;1731824;81;21425;-43
2021/06/30 00:09:41;;;;;;;1.72;1.27;;;;;;;14.99;100.00;100365.75;1731597;82;20999;-43
2021/06/30 00:12:08;;;;;;;4.55;1.60;;;;;;;14.96;100.00;100362.80;1731445;82;21047;-42
2021/06/30 00:14:35;;;;;;;1.35;1.22;;;;;;;14.94;100.00;100364.50;1731605;82;21003;-43
2021/06/30 00:17:03;;;;;;;1.17;1.07;;;;;;;14.91;100.00;100361.00;1724523;82;21043;-46
2021/06/30 00:19:31;;;;;;;1.30;1.20;;;;;;;14.89;100.00;100360.49;1731967;82;21046;-44
2021/06/30 00:21:57;;;;;;;1.65;1.30;;;;;;;14.88;100.00;100356.67;1731615;82;21015;-49
2021/06/30 00:24:23;;;;;;;1.90;1.35;;;;;;;14.84;100.00;100357.86;1731806;81;21438;-43
2021/06/30 00:26:49;;;;;;;1.95;1.30;;;;;;;14.82;100.00;100354.60;1731533;82;20999;-42
2021/06/30 00:29:16;;;;;;;1.87;1.50;;;;;;;14.79;100.00;100359.36;1731553;82;21023;-42
2021/06/30 00:31:43;;;;;;;2.12;1.32;;;;;;;14.74;100.00;100358.91;1731617;82;21083;-50
2021/06/30 00:34:09;;;;;;;1.57;1.20;;;;;;;14.68;100.00;100364.25;1740671;81;20984;-49
2021/06/30 00:36:46;;;;;;;1.45;1.35;;;;;;;14.63;100.00;100362.98;1761905;81;21501;-44
2021/06/30 00:39:15;;;;;;;2.12;1.60;;;;;;;14.62;100.00;100359.44;1762083;80;21000;-43
2021/06/30 00:41:43;;;;;;;2.05;1.10;;;;;;;14.61;100.00;100363.86;1761927;81;21390;-49
2021/06/30 00:44:10;;;;;;;1.37;1.20;;;;;;;14.58;100.00;100368.60;1761382;80;21478;-49
2021/06/30 00:46:37;;;;;;;1.82;1.65;;;;;;;14.52;100.00;100362.37;1746830;81;21011;-49
2021/06/30 00:49:06;;;;;;;1.32;1.22;;;;;;;14.48;100.00;100365.48;1762002;81;20988;-49
2021/06/30 00:51:32;;;;;;;1.40;1.07;;;;;;;14.45;100.00;100368.84;1762056;80;21453;-45
2021/06/30 00:54:00;;;;;;;2.15;1.45;;;;;;;14.44;100.00;100366.39;1761474;80;20998;-49
2021/06/30 00:56:28;;;;;;;1.50;1.17;;;;;;;14.38;100.00;100368.45;1731593;82;21021;-49
2021/06/30 00:58:57;;;;;;;2.10;1.45;;;;;;;14.34;100.00;100368.80;1744372;82;20997;-42
2021/06/30 01:01:26;;;;;;;3.00;1.40;;;;;;;14.31;100.00;100366.10;1743372;82;20987;-45
2021/06/30 01:03:52;;;;;;;2.25;1.52;;;;;;;14.29;100.00;100368.37;1744373;82;20977;-43
2021/06/30 01:06:19;;;;;;;1.25;1.05;;;;;;;14.25;100.00;100370.66;1744346;82;21496;-43
2021/06/30 01:08:48;;;;;;;3.17;1.52;;;;;;;14.19;100.00;100374.88;1744274;82;21559;-44
2021/06/30 01:11:14;;;;;;;4.28;1.47;;;;;;;14.15;100.00;100382.66;1741189;81;21589;-43
2021/06/30 01:13:42;;;;;;;2.15;1.27;;;;;;;14.12;100.00;100379.97;1719876;82;21452;-42
2021/06/30 01:16:10;;;;;;;4.12;2.17;;;;;;;14.11;100.00;100377.51;1718386;83;21390;-42
2021/06/30 01:18:38;;;;;;;3.83;1.90;;;;;;;14.10;100.00;100380.83;1726066;83;21077;-49
2021/06/30 01:21:08;;;;;;;4.92;1.50;;;;;;;14.07;100.00;100382.81;1718038;83;21090;-49
2021/06/30 01:23:37;;;;;;;3.30;1.62;;;;;;;14.06;100.00;100389.98;1742534;82;21057;-48
2021/06/30 01:26:04;;;;;;;4.95;1.35;;;;;;;14.05;100.00;100389.73;1723981;83;21041;-42
2021/06/30 01:28:30;;;;;;;1.47;1.10;;;;;;;14.02;100.00;100395.28;1718273;83;21013;-48
2021/06/30 01:30:57;;;;;;;1.52;1.17;;;;;;;13.95;100.00;100398.41;1694978;84;21081;-49
2021/06/30 01:33:23;;;;;;;3.70;1.62;;;;;;;13.90;100.00;100394.95;1695133;84;21010;-43
2021/06/30 01:35:51;;;;;;;3.25;1.45;;;;;;;13.82;100.00;100402.50;1694970;84;21098;-49
2021/06/30 01:38:22;;;;;;;1.77;1.42;;;;;;;13.79;100.00;100404.48;1695045;83;21033;-42
2021/06/30 01:40:51;;;;;;;2.02;1.55;;;;;;;13.73;100.00;100400.45;1695179;84;20981;-43
2021/06/30 01:43:19;;;;;;;1.75;1.40;;;;;;;13.70;100.00;100407.93;1672898;84;21025;-49
2021/06/30 01:45:53;;;;;;;0.95;0.93;;;;;;;13.72;100.00;100403.48;1689753;84;21454;-43
2021/06/30 01:48:20;;;;;;;2.87;1.60;;;;;;;13.73;100.00;100397.70;1697329;83;21017;-43
2021/06/30 01:50:49;;;;;;;1.90;1.25;;;;;;;13.72;100.00;100403.48;1712862;83;21052;-43
2021/06/30 01:53:19;;;;;;;1.85;1.60;;;;;;;13.71;100.00;100406.80;1695134;84;21407;-42
2021/06/30 01:55:45;;;;;;;2.50;1.57;;;;;;;13.70;100.00;100403.81;1695084;83;21109;-49
2021/06/30 01:58:20;;;;;;;1.52;1.40;;;;;;;13.72;100.00;100407.61;1694967;84;21001;-49
2021/06/30 02:00:51;;;;;;;4.17;1.60;;;;;;;13.73;100.00;100406.52;1695136;84;21093;-43
2021/06/30 02:03:20;;;;;;;2.12;1.35;;;;;;;13.72;100.00;100415.31;1712901;83;21422;-47
2021/06/30 02:05:47;;;;;;;1.40;0.90;;;;;;;13.73;100.00;100413.37;1684860;83;20993;-49
2021/06/30 02:08:13;;;;;;;3.42;1.15;;;;;;;13.74;100.00;100416.36;1695040;84;21334;-44
2021/06/30 02:10:44;;;;;;;2.58;1.50;;;;;;;13.74;100.00;100415.00;1697291;84;21018;-44
2021/06/30 02:13:10;;;;;;;1.50;1.37;;;;;;;13.72;100.00;100416.69;1716601;83;21332;-50
2021/06/30 02:15:38;;;;;;;2.42;1.45;;;;;;;13.71;100.00;100414.23;1731919;81;21008;-48
2021/06/30 02:18:08;;;;;;;1.57;1.47;;;;;;;13.71;100.00;100424.65;1731538;82;21412;-43
2021/06/30 02:20:36;;;;;;;3.83;1.27;;;;;;;13.72;100.00;100426.83;1731825;82;21047;-48
2021/06/30 02:23:03;;;;;;;2.42;1.72;;;;;;;13.72;100.00;100424.92;1736201;81;21047;-48
2021/06/30 02:25:31;;;;;;;1.15;1.05;;;;;;;13.73;100.00;100432.03;1762277;80;21020;-43
2021/06/30 02:27:57;;;;;;;1.35;1.20;;;;;;;13.76;100.00;100423.19;1761668;81;20980;-49
2021/06/30 02:30:28;;;;;;;2.00;1.42;;;;;;;13.84;100.00;100424.98;1762194;80;20984;-50
2021/06/30 02:32:56;;;;;;;;;;;;;;;13.91;100.00;100429.53;1749694;80;21004;-44
2021/06/30 02:35:24;;;;;;;1.37;1.27;;;;;;;13.97;100.00;100428.30;1732195;82;20178;-43
2021/06/30 02:37:53;;;;;;;2.02;1.35;;;;;;;14.03;100.00;100433.17;1731936;82;21007;-50
2021/06/30 02:40:20;;;;;;;2.40;1.60;;;;;;;14.11;100.00;100431.90;1732012;82;21055;-44
2021/06/30 02:42:46;;;;;;;1.30;1.05;;;;;;;14.20;100.00;100427.34;1731965;81;21117;-50
2021/06/30 02:45:15;;;;;;;1.40;1.25;;;;;;;14.28;100.00;100429.12;1731486;82;21075;-51
2021/06/30 02:47:42;;;;;;;3.47;1.30;;;;;;;14.37;100.00;100432.80;1731653;82;21038;-44
2021/06/30 02:50:12;;;;;;;2.45;1.72;;;;;;;14.44;100.00;100429.63;1731799;81;21038;-43
2021/06/30 02:52:40;;;;;;;3.58;1.95;;;;;;;14.50;100.00;100429.23;1731459;82;21441;-43
2021/06/30 02:55:08;;;;;;;1.12;1.05;;;;;;;14.56;100.00;100430.80;1731379;82;21666;-42
2021/06/30 02:57:34;;;;;;;2.47;1.47;;;;;;;14.67;100.00;100431.95;1731514;82;20999;-43
2021/06/30 03:00:09;;;;;;;3.33;1.65;;;;;;;14.78;100.00;100434.16;1743440;81;21466;-43
2021/06/30 03:02:35;;;;;;;1.50;1.10;;;;;;;14.92;100.00;100434.15;1761886;80;21039;-44
2021/06/30 03:05:02;;;;;;;3.33;1.82;;;;;;;15.07;100.00;100436.31;1762149;80;20988;-43
2021/06/30 03:07:28;;;;;;;1.85;1.20;;;;;;;15.20;100.00;100432.12;1762119;80;21474;-49
2021/06/30 03:09:54;;;;;;;2.45;1.50;;;;;;;15.36;100.00;100434.55;1761161;80;21007;-49
2021/06/30 03:12:23;;;;;;;1.42;1.32;;;;;;;15.50;100.00;100444.91;1761751;80;21051;-44
2021/06/30 03:14:51;;;;;;;2.98;1.65;;;;;;;15.62;100.00;100437.47;1761876;80;20988;-43
2021/06/30 03:17:19;;;;;;;2.05;1.25;;;;;;;15.74;100.00;100437.75;1761359;80;21418;-49
2021/06/30 03:19:45;;;;;;;1.62;1.42;;;;;;;15.89;100.00;100440.11;1702419;83;21584;-48
2021/06/30 03:22:12;;;;;;;2.22;1.60;;;;;;;16.04;100.00;100439.46;1702379;84;21017;-49
2021/06/30 03:24:54;;;;;;;2.42;1.60;;;;;;;16.17;100.00;100443.25;1692183;83;21089;-43
2021/06/30 03:27:35;;;;;;;4.45;2.10;;;;;;;16.27;100.00;100445.19;1726077;82;21046;-43
2021/06/30 03:30:06;;;;;;;1.72;1.55;;;;;;;16.39;100.00;100445.13;1744199;82;21029;-49
2021/06/30 03:32:33;;;;;;;2.87;1.55;;;;;;;16.53;100.00;100441.13;1744524;82;21049;-49
2021/06/30 03:35:00;;;;;;;3.08;2.17;;;;;;;16.71;100.00;100435.09;1744666;82;21029;-48
2021/06/30 03:37:26;;;;;;;2.75;1.87;;;;;;;16.87;100.00;100429.98;1721064;82;21029;-43
2021/06/30 03:39:52;;;;;;;2.37;1.85;;;;;;;17.05;100.00;100433.56;1714917;83;21041;-50
2021/06/30 03:42:19;;;;;;;3.08;1.87;;;;;;;17.23;100.00;100436.33;1714769;83;21010;-48
2021/06/30 03:44:48;;;;;;;3.08;1.90;;;;;;;17.38;100.00;100431.16;1716522;82;21005;-48
2021/06/30 03:47:16;;;;;;;2.00;1.55;;;;;;;17.47;100.00;100436.66;1744467;82;21029;-43
2021/06/30 03:49:42;;;;;;;2.05;1.80;;;;;;;17.55;100.00;100432.26;1743868;82;21053;-49
2021/06/30 03:52:10;;;;;;;2.52;1.77;;;;;;;17.65;100.00;100438.02;1726391;82;21022;-50
2021/06/30 03:54:37;;;;;;;2.50;1.70;;;;;;;17.78;100.00;100437.04;1724861;82;21017;-49
2021/06/30 03:57:04;;;;;;;2.70;1.60;;;;;;;17.92;100.00;100441.81;1742681;81;21063;-44
2021/06/30 03:59:30;;;;;;;2.27;1.40;;;;;;;18.07;100.00;100444.62;1755865;81;21067;-44
2021/06/30 04:01:58;;;;;;;2.20;1.35;;;;;;;18.20;100.00;100438.63;1755908;81;21031;-49
2021/06/30 04:04:26;;;;;;;5.25;1.60;;;;;;;18.35;100.00;100445.02;1755274;81;21015;-44
2021/06/30 04:06:54;;;;;;;2.05;1.20;;;;;;;18.52;100.00;100441.92;1755780;81;21018;-43
2021/06/30 04:09:22;;;;;;;1.17;0.93;;;;;;;18.67;99.45;100445.52;1755686;81;21019;-45
2021/06/30 04:11:49;;;;;;;1.42;1.32;;;;;;;18.84;98.54;100446.00;1753535;81;21058;-49
2021/06/30 04:14:17;;;;;;;2.40;1.15;;;;;;;19.20;96.05;100442.67;1703074;82;21385;-44
2021/06/30 04:16:46;;;;;;;2.98;1.42;;;;;;;19.20;96.05;100442.67;1725332;83;20929;-43
2021/06/30 04:19:12;;;;;;;1.85;1.55;;;;;;;19.34;94.94;100448.75;1719482;83;20978;-50
2021/06/30 04:21:39;;;;;;;1.72;1.42;;;;;;;19.48;93.53;100441.53;1719682;82;21041;-50
2021/06/30 04:24:08;;;;;;;2.50;1.22;;;;;;;19.61;92.86;100434.09;1722218;82;21819;-44
2021/06/30 04:26:35;;;;;;;1.90;1.40;;;;;;;19.75;92.04;100438.77;1736195;82;21535;-45
2021/06/30 04:29:11;;;;;;;1.47;1.20;;;;;;;19.87;90.86;100439.39;1699436;84;21014;-44
2021/06/30 04:31:39;;;;;;;2.02;1.65;;;;;;;20.01;90.23;100441.06;1697770;83;21573;-50
2021/06/30 04:34:05;;;;;;;1.62;1.30;;;;;;;20.12;88.59;100441.64;1702072;83;21510;-50
2021/06/30 04:36:31;;;;;;;2.95;1.60;;;;;;;20.23;88.17;100441.19;1696547;84;20989;-50
2021/06/30 04:38:58;;;;;;;1.27;1.17;;;;;;;20.34;87.93;100438.20;1719893;82;21017;-44
2021/06/30 04:41:24;;;;;;;2.77;1.42;;;;;;;20.47;87.33;100435.66;1738766;82;20986;-45
2021/06/30 04:43:51;;;;;;;1.52;1.42;;;;;;;20.59;86.15;100442.63;1735266;82;21002;-51
2021/06/30 04:46:18;;;;;;;1.52;1.20;;;;;;;20.70;85.56;100443.58;1733914;82;21002;-44
2021/06/30 04:48:44;;;;;;;1.20;1.10;;;;;;;20.78;84.94;100444.83;1719939;82;21642;-50
2021/06/30 04:51:12;;;;;;;1.37;1.15;;;;;;;20.88;84.37;100443.55;1720033;82;21033;-50
2021/06/30 04:53:38;;;;;;;2.00;1.32;;;;;;;20.98;83.51;100436.70;1725620;81;21451;-44
2021/06/30 04:56:05;;;;;;;1.35;1.12;;;;;;;21.04;82.78;100437.52;1725648;83;20913;-49
2021/06/30 04:58:31;;;;;;;2.05;1.37;;;;;;;21.15;82.38;100437.02;1717469;81;21471;-44
2021/06/30 05:00:57;;;;;;;1.70;1.00;;;;;;;21.30;81.43;100441.84;1734472;81;21023;-44
2021/06/30 05:03:28;;;;;;;1.70;0.93;;;;;;;21.45;80.73;100438.92;1730941;82;21029;-50
2021/06/30 05:05:55;;;;;;;1.40;1.20;;;;;;;21.59;79.89;100437.14;1720106;82;21607;-50
2021/06/30 05:08:23;;;;;;;1.12;1.12;;;;;;;21.76;78.71;100442.39;1720601;82;21078;-46
2021/06/30 05:10:51;;;;;;;1.35;1.22;;;;;;;21.90;78.09;100445.53;1731685;80;21459;-43
2021/06/30 05:13:17;;;;;;;1.37;1.17;;;;;;;22.05;76.54;100443.14;1752893;81;21566;-50
2021/06/30 05:15:44;;;;;;;2.37;1.42;;;;;;;22.17;75.82;100448.62;1746079;81;21062;-50
2021/06/30 05:18:10;;;;;;;1.25;1.05;;;;;;;22.33;74.89;100444.50;1733190;81;20969;-44
2021/06/30 05:20:37;;;;;;;1.60;1.50;;;;;;;22.47;74.55;100441.25;1725805;83;20990;-50
2021/06/30 05:23:03;;;;;;;2.17;1.30;;;;;;;22.60;74.14;100443.34;1726221;83;21072;-50
2021/06/30 05:25:30;;;;;;;2.12;1.25;;;;;;;22.68;73.88;100433.42;1730433;81;21405;-50
2021/06/30 05:27:56;;;;;;;1.10;0.80;;;;;;;22.80;73.51;100433.06;1756545;81;20990;-50
2021/06/30 05:30:22;;;;;;;3.70;2.10;;;;;;;22.93;72.16;100433.19;1753658;81;22105;-50
2021/06/30 05:32:49;;;;;;;1.50;1.20;;;;;;;23.06;72.55;100436.09;1736722;81;20862;-44
2021/06/30 05:35:15;;;;;;;1.67;1.42;;;;;;;23.22;71.14;100446.38;1755444;81;20998;-50
2021/06/30 05:37:41;;;;;;;1.42;1.10;;;;;;;23.30;71.40;100439.80;1753224;81;21050;-45
2021/06/30 05:40:10;;;;;;;2.98;1.60;;;;;;;23.40;70.03;100440.02;1755392;81;21092;-50
2021/06/30 05:42:38;;;;;;;2.05;1.20;;;;;;;23.51;69.15;100437.43;1756482;81;21072;-50
2021/06/30 05:45:07;;;;;;;2.05;1.25;;;;;;;23.57;68.61;100442.95;1744379;81;21029;-45
2021/06/30 05:47:33;;;;;;;1.12;1.02;;;;;;;23.64;68.69;100448.44;1756175;81;21005;-50
2021/06/30 05:50:00;;;;;;;1.32;1.07;;;;;;;23.74;69.07;100442.31;1752787;81;21006;-51
2021/06/30 05:52:26;;;;;;;0.88;0.88;;;;;;;23.87;67.69;100438.17;1753943;81;21062;-50
2021/06/30 05:54:53;;;;;;;1.42;1.07;;;;;;;23.95;67.22;100441.30;1728045;81;21563;-44
2021/06/30 05:57:19;;;;;;;1.22;1.07;;;;;;;24.06;67.08;100444.88;1726623;81;21033;-50
2021/06/30 05:59:45;;;;;;;0.98;0.88;;;;;;;24.16;66.10;100449.84;1728878;81;21069;-45
2021/06/30 06:02:12;;;;;;;1.67;1.12;;;;;;;24.28;66.58;100455.23;1755336;81;21017;-50
2021/06/30 06:04:38;;;;;;;0.80;0.80;;;;;;;24.40;64.12;100452.25;1754648;81;21458;-45
2021/06/30 06:07:05;;;;;;;2.12;0.90;;;;;;;24.45;64.10;100456.16;1725919;83;21460;-50
2021/06/30 06:09:32;;;;;;;1.17;1.00;;;;;;;24.55;63.98;100452.52;1726181;83;21004;-45
2021/06/30 06:11:58;;;;;;;2.37;1.25;;;;;;;24.64;62.65;100455.88;1748510;81;20980;-50
2021/06/30 06:14:24;;;;;;;1.10;1.00;;;;;;;24.69;61.32;100458.34;1732749;81;21045;-50
2021/06/30 06:16:52;;;;;;;1.45;1.07;;;;;;;24.71;60.15;100455.98;1743217;82;20997;-50
2021/06/30 06:19:21;;;;;;;0.78;0.78;;;;;;;24.76;61.29;100452.88;1721202;82;21002;-50
2021/06/30 06:21:48;;;;;;;1.12;0.80;;;;;;;24.91;60.91;100455.88;1687866;83;21097;-50
2021/06/30 06:24:15;;;;;;;0.95;0.80;;;;;;;25.02;60.72;100452.64;1702298;82;21683;-44
2021/06/30 06:26:41;;;;;;;0.82;0.80;;;;;;;25.10;59.50;100443.98;1734115;82;21077;-50
2021/06/30 06:29:08;;;;;;;1.90;0.95;;;;;;;25.15;58.91;100448.45;1710774;82;21516;-51
2021/06/30 06:31:35;;;;;;;1.45;1.10;;;;;;;25.26;60.11;100443.81;1743153;82;21752;-50
2021/06/30 06:34:01;;;;;;;0.80;0.80;;;;;;;25.39;60.04;100450.56;1716576;82;20993;-50
2021/06/30 06:36:27;;;;;;;1.10;0.85;;;;;;;25.46;59.55;100453.45;1683356;85;21057;-44
2021/06/30 06:38:54;;;;;;;1.40;0.93;;;;;;;25.50;58.69;100458.52;1696949;84;21065;-44
2021/06/30 06:41:21;;;;;;;0.75;0.65;;;;;;;25.66;58.90;100453.49;1713272;83;21431;-44
2021/06/30 06:43:47;;;;;;;1.20;1.10;;;;;;;25.85;58.98;100457.31;1700323;84;21665;-49
2021/06/30 06:46:13;;;;;;;2.05;1.27;;;;;;;26.00;58.91;100449.90;1698207;83;21087;-45
2021/06/30 06:48:42;;;;;;;0.80;0.80;;;;;;;26.18;58.04;100451.66;1713206;83;21012;-50
2021/06/30 06:51:08;;;;;;;1.30;0.90;;;;;;;26.34;56.60;100452.02;1713678;83;20992;-50
2021/06/30 06:53:34;;;;;;;4.90;2.25;;;;;;;26.33;55.82;100449.00;1713511;83;21033;-46
2021/06/30 06:56:02;;;;;;;1.72;0.85;;;;;;;26.37;56.45;100457.64;1713536;83;21004;-43
2021/06/30 06:58:28;;;;;;;1.07;0.95;;;;;;;26.51;56.14;100455.56;1713385;83;21021;-44
2021/06/30 07:00:55;;;;;;;0.95;0.80;;;;;;;26.55;55.95;100456.41;1713878;83;21888;-45
2021/06/30 07:03:21;;;;;;;0.98;0.80;;;;;;;26.59;54.53;100451.65;1714636;82;20997;-44
2021/06/30 07:05:48;;;;;;;2.15;1.05;;;;;;;26.58;56.55;100452.86;1703534;82;21097;-45
2021/06/30 07:08:15;;;;;;;1.95;1.25;;;;;;;26.68;55.72;100457.51;1713784;82;20909;-50
2021/06/30 07:10:41;;;;;;;1.00;0.90;;;;;;;26.72;56.28;100458.34;1713380;83;21016;-46
2021/06/30 07:13:07;;;;;;;1.62;0.82;;;;;;;26.79;55.32;100448.59;1717882;82;21008;-44
2021/06/30 07:15:34;;;;;;;1.10;1.00;;;;;;;26.86;54.23;100451.45;1753773;81;21028;-45
2021/06/30 07:18:01;;;;;;;1.10;0.93;;;;;;;27.00;55.62;100453.52;1762297;81;20999;-44
2021/06/30 07:20:28;;;;;;;1.10;0.80;;;;;;;27.21;55.62;100452.27;1737813;80;21560;-49
2021/06/30 07:22:54;;;;;;;1.17;0.80;;;;;;;27.40;54.44;100444.16;1731514;82;21441;-50
2021/06/30 07:25:20;;;;;;;1.55;0.93;;;;;;;27.51;53.23;100456.81;1734002;80;21441;-50
2021/06/30 07:27:47;;;;;;;0.90;0.90;;;;;;;27.54;52.26;100448.20;1731499;82;21000;-49
2021/06/30 07:30:14;;;;;;;0.50;0.50;;;;;;;27.46;52.73;100448.78;1731455;82;21070;-50
2021/06/30 07:32:41;;;;;;;0.95;0.75;;;;;;;27.62;52.55;100446.44;1731477;81;21393;-50
2021/06/30 07:35:08;;;;;;;0.60;0.60;;;;;;;27.77;52.85;100438.86;1732028;81;20976;-49
2021/06/30 07:37:35;;;;;;;1.52;1.25;;;;;;;27.86;52.19;100435.69;1732574;81;21543;-44
2021/06/30 07:40:03;;;;;;;0.82;0.80;;;;;;;27.93;52.60;100438.52;1731627;82;21473;-44
2021/06/30 07:42:30;;;;;;;1.50;0.82;;;;;;;27.94;50.42;100436.51;1731766;82;21478;-50
2021/06/30 07:44:58;;;;;;;0.70;0.70;;;;;;;27.87;51.27;100434.51;1734341;81;21464;-50
2021/06/30 07:47:24;;;;;;;1.47;0.80;;;;;;;27.86;50.63;100431.48;1731456;82;21027;-45
2021/06/30 07:49:50;;;;;;;1.17;0.82;;;;;;;27.87;52.54;100429.69;1731591;82;21010;-45
2021/06/30 07:52:16;;;;;;;1.85;1.00;;;;;;;28.07;51.53;100432.13;1732180;81;21008;-46
2021/06/30 07:54:44;;;;;;;1.37;0.90;;;;;;;28.33;52.04;100432.94;1744572;80;21011;-45
2021/06/30 07:57:10;;;;;;;1.47;1.37;;;;;;;28.62;50.24;100431.75;1731766;82;21002;-50
2021/06/30 07:59:37;;;;;;;0.95;0.85;;;;;;;28.75;50.36;100432.73;1731479;82;21011;-45
2021/06/30 08:02:03;;;;;;;0.80;0.72;;;;;;;28.90;49.99;100424.47;1731775;81;21453;-45
2021/06/30 08:04:29;;;;;;;2.35;1.07;;;;;;;29.18;49.19;100429.25;1731486;82;21449;-44
2021/06/30 08:06:56;;;;;;;0.80;0.80;;;;;;;29.29;46.91;100430.61;1716863;82;21030;-50
2021/06/30 08:09:22;;;;;;;1.50;0.80;;;;;;;29.26;47.71;100429.41;1731674;82;20984;-45
2021/06/30 08:11:50;;;;;;;1.15;0.90;;;;;;;29.34;48.23;100428.78;1734459;81;20992;-45
2021/06/30 08:14:17;;;;;;;1.00;0.90;;;;;;;29.54;49.15;100429.09;1755679;81;21004;-50
2021/06/30 08:16:44;;;;;;;2.50;1.10;;;;;;;29.77;47.62;100436.44;1761502;81;20987;-45
2021/06/30 08:19:11;;;;;;;1.10;0.78;;;;;;;30.00;47.34;100427.44;1761904;80;20983;-52
2021/06/30 08:21:37;;;;;;;1.10;1.00;;;;;;;30.16;46.66;100427.52;1742748;80;21019;-50
2021/06/30 08:24:05;;;;;;;1.17;0.93;;;;;;;30.23;45.90;100427.47;1731829;82;20971;-51
2021/06/30 08:26:32;;;;;;;1.10;0.98;;;;;;;30.33;46.41;100418.77;1740656;80;20908;-45
2021/06/30 08:28:59;;;;;;;1.02;0.90;;;;;;;30.45;45.20;100419.66;1731825;80;21019;-43
2021/06/30 08:31:26;;;;;;;1.10;1.00;;;;;;;30.46;43.58;100426.09;1733926;81;21581;-51
2021/06/30 08:33:52;;;;;;;1.27;1.17;;;;;;;30.38;42.18;100420.52;1731952;81;21050;-45
2021/06/30 08:36:19;;;;;;;1.55;1.27;;;;;;;30.35;42.50;100420.56;1726072;83;21357;-45
2021/06/30 08:38:45;;;;;;;1.35;0.98;;;;;;;30.50;41.86;100422.03;1726429;83;21025;-50
2021/06/30 08:41:11;;;;;;;1.95;0.75;;;;;;;30.59;41.09;100420.94;1726895;81;21567;-46
2021/06/30 08:43:38;;;;;;;2.50;0.57;;;;;;;30.43;41.03;100422.88;1727474;81;21057;-51
2021/06/30 08:46:06;;;;;;;1.17;0.88;;;;;;;30.24;40.98;100420.59;1756401;81;21029;-51
2021/06/30 08:48:32;;;;;;;1.45;0.85;;;;;;;30.09;41.64;100419.11;1752602;81;20926;-51
2021/06/30 08:50:59;;;;;;;1.05;0.90;;;;;;;30.17;41.46;100428.52;1730588;81;21873;-44
2021/06/30 08:53:25;;;;;;;1.52;0.93;;;;;;;30.20;40.43;100421.25;1692098;82;21097;-45
2021/06/30 08:55:52;;;;;;;0.93;0.93;;;;;;;30.16;41.22;100428.92;1728028;82;20975;-44
2021/06/30 08:58:18;;;;;;;0.78;0.78;;;;;;;30.23;40.40;100420.42;1740817;82;21022;-44
2021/06/30 09:00:45;;;;;;;0.70;0.70;;;;;;;30.30;40.03;100432.28;1724650;81;21017;-51
2021/06/30 09:03:16;;;;;;;1.55;1.05;;;;;;;30.31;40.21;100429.64;1725915;83;21057;-45
2021/06/30 09:08:48;;;;;;;1.35;0.80;;;;;;;30.60;45.15;100423.14;1747582;81;21027;-45
2021/06/30 09:11:22;;;;;;;1.15;1.00;;;;;;;30.53;45.70;100427.44;1731792;82;21031;-45
2021/06/30 09:13:54;;;;;;;1.30;0.90;;;;;;;30.47;46.21;100423.48;1724246;82;21582;-51
2021/06/30 09:16:20;;;;;;;0.95;0.82;;;;;;;30.56;45.62;100429.42;1682071;83;21085;-45
2021/06/30 09:18:51;;;;;;;1.20;1.10;;;;;;;30.68;46.46;100422.47;1728597;82;21030;-45
2021/06/30 09:21:22;;;;;;;1.27;0.90;;;;;;;30.67;44.72;100423.08;1719637;82;21057;-51
2021/06/30 09:24:02;;;;;;;0.80;0.80;;;;;;;30.45;45.00;100424.50;1722050;82;20994;-45
2021/06/30 09:26:32;;;;;;;1.15;0.85;;;;;;;30.25;45.89;100419.43;1749640;82;21403;-45
2021/06/30 09:29:06;;;;;;;1.15;1.02;;;;;;;30.11;46.44;100417.48;1743701;82;21050;-51
2021/06/30 09:31:34;;;;;;;2.47;1.60;;;;;;;30.03;47.21;100412.33;1749999;81;21804;-51
2021/06/30 09:34:02;;;;;;;1.32;1.20;;;;;;;30.01;47.35;100419.16;1749944;82;21621;-45
2021/06/30 09:36:32;;;;;;;1.10;0.95;;;;;;;29.93;46.71;100411.19;1741792;82;21030;-50
2021/06/30 09:39:09;;;;;;;1.77;1.05;;;;;;;29.87;48.24;100411.42;1736707;82;21005;-51
2021/06/30 09:41:38;;;;;;;1.32;0.95;;;;;;;30.04;47.65;100408.28;1720807;82;21017;-51
2021/06/30 09:44:13;;;;;;;0.80;0.70;;;;;;;30.19;47.78;100406.95;1720235;83;20979;-46
2021/06/30 09:46:41;;;;;;;1.00;0.60;;;;;;;30.32;47.46;100416.55;1719991;83;21037;-51
2021/06/30 09:49:18;;;;;;;0.93;0.70;;;;;;;30.31;46.12;100409.30;1727652;82;21034;-45
2021/06/30 09:51:50;;;;;;;1.50;1.00;;;;;;;30.23;47.04;100411.96;1744261;80;20942;-45
2021/06/30 09:54:19;;;;;;;0.90;0.90;;;;;;;30.25;46.51;100409.56;1719482;83;21062;-45
2021/06/30 09:56:57;;;;;;;0.98;0.82;;;;;;;30.17;46.50;100407.39;1747592;82;21005;-45
2021/06/30 09:59:27;;;;;;;1.75;1.30;;;;;;;30.03;46.39;100403.27;1742342;82;20946;-45
2021/06/30 10:02:12;;;;;;;0.60;0.60;;;;;;;29.80;46.27;100403.84;1749277;82;21061;-51
2021/06/30 10:04:42;;;;;;;2.37;0.90;;;;;;;29.51;46.99;100405.38;1749317;82;20874;-44
2021/06/30 10:07:14;;;;;;;0.65;0.65;;;;;;;29.27;47.84;100393.63;1719869;82;21053;-45
2021/06/30 10:09:54;;;;;;;1.20;0.85;;;;;;;28.99;47.55;100396.73;1722674;82;21009;-45
2021/06/30 10:12:27;;;;;;;0.93;0.72;;;;;;;28.77;49.64;100393.78;1719186;83;21614;-45
2021/06/30 10:14:55;;;;;;;1.02;0.70;;;;;;;28.73;49.83;100386.74;1727428;82;21010;-51
2021/06/30 10:17:22;;;;;;;1.35;0.78;;;;;;;28.75;49.66;100389.16;1737227;81;21396;-45
2021/06/30 10:19:51;;;;;;;1.32;0.90;;;;;;;28.66;49.42;100382.53;1736403;81;20996;-50
2021/06/30 10:22:17;;;;;;;2.37;1.42;;;;;;;28.49;50.15;100388.41;1733557;82;21507;-45
2021/06/30 10:24:44;;;;;;;1.30;0.72;;;;;;;28.25;50.43;100387.98;1734094;82;21355;-45
2021/06/30 10:27:12;;;;;;;1.80;0.85;;;;;;;28.10;51.60;100382.17;1733737;81;21088;-44
2021/06/30 10:29:44;;;;;;;0.80;0.80;;;;;;;28.09;52.43;100379.14;1752030;81;21102;-51
2021/06/30 10:32:15;;;;;;;1.30;0.98;;;;;;;28.32;52.88;100373.75;1747803;81;20989;-44
2021/06/30 10:34:45;;;;;;;1.20;1.00;;;;;;;28.62;52.22;100379.75;1726903;82;21008;-51
2021/06/30 10:37:27;;;;;;;1.12;0.98;;;;;;;28.94;51.07;100371.84;1733836;81;21089;-51
2021/06/30 10:40:14;;;;;;;1.42;1.05;;;;;;;29.23;50.95;100363.29;1735346;79;21007;-44
2021/06/30 10:42:46;;;;;;;0.93;0.80;;;;;;;29.58;49.05;100360.91;1733196;81;20988;-45
2021/06/30 10:45:21;;;;;;;1.00;0.70;;;;;;;29.79;48.13;100361.39;1751279;79;21008;-45
2021/06/30 10:48:05;;;;;;;1.07;0.98;;;;;;;29.93;48.15;100360.49;1763688;81;21499;-51
2021/06/30 10:50:46;;;;;;;1.55;1.12;;;;;;;29.98;46.24;100356.62;1736688;81;21019;-44
2021/06/30 10:53:29;;;;;;;1.07;0.98;;;;;;;30.07;46.27;100357.56;1732878;82;21004;-49
2021/06/30 10:56:00;;;;;;;1.15;0.80;;;;;;;30.22;46.99;100352.61;1733356;82;21024;-51
2021/06/30 10:58:29;;;;;;;2.92;1.50;;;;;;;30.45;46.26;100362.48;1734031;81;21005;-45
2021/06/30 11:01:04;;;;;;;1.57;1.05;;;;;;;30.60;46.22;100356.89;1738007;81;21028;-44
2021/06/30 11:03:45;;;;;;;1.05;0.95;;;;;;;30.66;46.02;100359.42;1745469;81;21663;-45
2021/06/30 11:06:32;;;;;;;1.17;1.07;;;;;;;30.61;45.05;100360.71;1750944;79;21001;-51
2021/06/30 11:09:10;;;;;;;1.00;0.90;;;;;;;30.59;45.27;100359.53;1749863;81;21061;-46
2021/06/30 11:11:49;;;;;;;1.77;1.47;;;;;;;30.82;46.05;100357.45;1741781;81;21043;-51
2021/06/30 11:14:23;;;;;;;1.50;1.30;;;;;;;30.99;45.97;100357.09;1748977;81;21036;-45
2021/06/30 11:16:49;;;;;;;1.12;1.02;;;;;;;31.03;43.05;100348.77;1714753;83;21074;-47
2021/06/30 11:19:22;;;;;;;0.98;0.85;;;;;;;30.99;44.68;100350.03;1715953;83;21030;-46
2021/06/30 11:21:56;;;;;;;1.62;1.10;;;;;;;31.03;43.63;100352.18;1715525;82;21019;-51
2021/06/30 11:24:49;;;;;;;1.07;0.90;;;;;;;31.08;44.62;100354.53;1727408;82;21023;-51
2021/06/30 11:27:35;;;;;;;1.20;1.05;;;;;;;31.32;44.43;100343.35;1744311;82;21015;-51
2021/06/30 11:30:04;;;;;;;1.67;1.17;;;;;;;31.62;42.48;100338.30;1745463;81;21095;-46
2021/06/30 11:32:38;;;;;;;2.67;1.57;;;;;;;31.82;40.94;100342.63;1745209;82;21032;-51